Time;durP1;ratioP1;P1;durP2;ratioP2;P2;SDS_P1;SDS_P2;PMS_P1;PMS_P2;Temp;Humidity;BMP_temperature;BMP_pressure;BME280_temperature;BME280_humidity;BME280_pressure;Samples;Min_cycle;Max_cycle;Signal;HPM_P1;HPM_P2
2023/12/25 00:01:01;;;;;;;;;;;9.40;99.90;;;;;;5033040;28;20003;-86
2023/12/25 00:03:26;;;;;;;;;;;9.40;99.90;;;;;;5029548;28;19913;-83
2023/12/25 00:05:51;;;;;;;;;;;9.40;99.90;;;;;;5028881;28;19956;-85
2023/12/25 00:08:17;;;;;;;;;;;9.40;99.90;;;;;;5038562;28;19940;-86
2023/12/25 00:10:42;;;;;;;;;;;9.50;99.90;;;;;;5038169;28;19944;-86
2023/12/25 00:13:08;;;;;;;;;;;9.50;99.90;;;;;;5042550;28;19966;-86
2023/12/25 00:15:33;;;;;;;;;;;9.40;99.90;;;;;;5042499;28;19952;-86
2023/12/25 00:17:58;;;;;;;;;;;9.30;99.90;;;;;;5038115;28;19917;-86
2023/12/25 00:20:24;;;;;;;;;;;9.30;99.90;;;;;;5034403;28;19917;-85
2023/12/25 00:22:49;;;;;;;;;;;9.20;99.90;;;;;;5032364;28;19923;-85
2023/12/25 00:25:15;;;;;;;;;;;9.20;99.90;;;;;;5039800;28;19917;-86
2023/12/25 00:27:40;;;;;;;;;;;9.20;99.90;;;;;;5034069;28;19912;-85
2023/12/25 00:30:07;;;;;;;;;;;9.30;99.90;;;;;;5023688;28;19992;-86
2023/12/25 00:32:32;;;;;;;;;;;9.30;99.90;;;;;;5044922;28;20352;-85
2023/12/25 00:34:57;;;;;;;;;;;9.30;99.90;;;;;;5033971;28;19917;-86
2023/12/25 00:37:23;;;;;;;;;;;9.40;99.90;;;;;;5049012;28;19951;-85
2023/12/25 00:39:48;;;;;;;;;;;9.40;99.90;;;;;;5018389;28;19913;-85
2023/12/25 00:42:14;;;;;;;;;;;9.40;99.90;;;;;;5032800;28;19961;-86
2023/12/25 00:44:39;;;;;;;;;;;9.40;99.90;;;;;;5035664;28;20425;-85
2023/12/25 00:47:05;;;;;;;;;;;9.30;99.90;;;;;;5017245;28;20449;-85
2023/12/25 00:49:30;;;;;;;;;;;9.30;99.90;;;;;;5019310;28;19920;-86
2023/12/25 00:51:55;;;;;;;;;;;9.30;99.90;;;;;;5044246;28;19921;-86
2023/12/25 00:54:21;;;;;;;;;;;9.30;99.90;;;;;;5021078;28;19947;-85
2023/12/25 00:56:46;;;;;;;;;;;9.30;99.90;;;;;;5052534;28;19908;-86
2023/12/25 00:59:12;;;;;;;;;;;9.40;99.90;;;;;;5033974;28;19915;-86
2023/12/25 01:01:37;;;;;;;;;;;9.40;99.90;;;;;;5047503;28;19913;-85
2023/12/25 01:04:03;;;;;;;;;;;9.50;99.90;;;;;;5042499;28;19909;-86
2023/12/25 01:06:28;;;;;;;;;;;9.50;99.90;;;;;;5037357;28;20637;-81
2023/12/25 01:08:55;;;;;;;;;;;9.50;99.90;;;;;;5049841;28;19913;-83
2023/12/25 01:11:21;;;;;;;;;;;9.50;99.90;;;;;;5014928;28;19916;-84
2023/12/25 01:13:46;;;;;;;;;;;9.50;99.90;;;;;;5035480;28;20369;-85
2023/12/25 01:16:11;;;;;;;;;;;9.50;99.90;;;;;;5044055;28;20718;-83
2023/12/25 01:18:37;;;;;;;;;;;9.40;99.90;;;;;;5012715;28;19916;-86
2023/12/25 01:21:02;;;;;;;;;;;9.50;99.90;;;;;;5043676;28;19916;-84
2023/12/25 01:23:28;;;;;;;;;;;9.30;99.90;;;;;;5038001;28;19909;-85
2023/12/25 01:25:54;;;;;;;;;;;9.10;99.90;;;;;;5045114;28;20015;-85
2023/12/25 01:28:19;;;;;;;;;;;9.00;99.90;;;;;;5036669;28;20393;-86
2023/12/25 01:30:45;;;;;;;;;;;9.00;99.90;;;;;;5024851;28;19909;-85
2023/12/25 01:33:10;;;;;;;;;;;9.00;99.90;;;;;;5032252;28;19909;-86
2023/12/25 01:35:35;;;;;;;;;;;9.10;99.90;;;;;;5038394;28;19913;-86
2023/12/25 01:38:01;;;;;;;;;;;9.20;99.90;;;;;;5030948;28;19920;-85
2023/12/25 01:40:26;;;;;;;;;;;9.10;99.90;;;;;;5031782;28;19908;-86
2023/12/25 01:42:53;;;;;;;;;;;8.90;99.90;;;;;;5031805;28;20424;-85
2023/12/25 01:45:19;;;;;;;;;;;8.60;99.90;;;;;;5030493;28;19952;-86
2023/12/25 01:47:44;;;;;;;;;;;8.40;99.90;;;;;;5037767;28;19956;-85
2023/12/25 01:50:10;;;;;;;;;;;8.30;99.90;;;;;;5043920;28;19913;-86
2023/12/25 01:52:36;;;;;;;;;;;8.20;99.90;;;;;;5019781;28;20020;-86
2023/12/25 01:55:01;;;;;;;;;;;8.20;99.90;;;;;;5045570;28;19975;-86
2023/12/25 01:57:28;;;;;;;;;;;8.20;99.90;;;;;;5031872;28;20417;-86
2023/12/25 01:59:54;;;;;;;;;;;8.20;99.90;;;;;;5031143;28;19955;-85
2023/12/25 02:02:20;;;;;;;;;;;8.30;99.90;;;;;;5032279;28;19913;-83
2023/12/25 02:04:46;;;;;;;;;;;8.30;99.90;;;;;;5031901;28;19919;-85
2023/12/25 02:07:12;;;;;;;;;;;8.50;99.90;;;;;;5009511;28;19909;-85
2023/12/25 02:09:38;;;;;;;;;;;8.60;99.90;;;;;;5018013;28;19909;-87
2023/12/25 02:12:03;;;;;;;;;;;8.60;99.90;;;;;;5042142;28;20003;-86
2023/12/25 02:14:29;;;;;;;;;;;8.60;99.90;;;;;;5044942;28;19948;-87
2023/12/25 02:16:54;;;;;;;;;;;8.40;99.90;;;;;;5040668;28;19909;-86
2023/12/25 02:19:26;;;;;;;;;;;8.40;99.90;;;;;;5036238;28;20455;-86
2023/12/25 02:21:52;;;;;;;;;;;8.40;99.90;;;;;;5012620;28;19963;-86
2023/12/25 02:24:20;;;;;;;;;;;8.40;99.90;;;;;;5030572;28;19960;-86
2023/12/25 02:26:46;;;;;;;;;;;8.30;99.90;;;;;;5029048;28;19920;-86
2023/12/25 02:29:11;;;;;;;;;;;8.40;99.90;;;;;;5030541;28;20284;-86
2023/12/25 02:31:37;;;;;;;;;;;8.40;99.90;;;;;;5043129;28;20008;-86
2023/12/25 02:34:02;;;;;;;;;;;8.40;99.90;;;;;;5049170;28;19952;-87
2023/12/25 02:36:27;;;;;;;;;;;8.40;99.90;;;;;;5033077;28;20372;-85
2023/12/25 02:38:53;;;;;;;;;;;8.40;99.90;;;;;;5031115;28;19977;-86
2023/12/25 02:41:18;;;;;;;;;;;8.40;99.90;;;;;;5037282;28;19913;-86
2023/12/25 02:43:44;;;;;;;;;;;8.40;99.90;;;;;;5031760;28;19940;-85
2023/12/25 02:46:09;;;;;;;;;;;8.40;99.90;;;;;;5035891;28;19925;-87
2023/12/25 02:48:35;;;;;;;;;;;8.40;99.90;;;;;;5047192;28;19908;-85
2023/12/25 02:51:00;;;;;;;;;;;8.40;99.90;;;;;;5046087;28;20265;-86
2023/12/25 02:53:25;;;;;;;;;;;8.20;99.90;;;;;;5031273;28;19919;-86
2023/12/25 02:55:51;;;;;;;;;;;8.10;99.90;;;;;;5046845;28;19912;-84
2023/12/25 02:58:16;;;;;;;;;;;8.00;99.90;;;;;;5048962;28;20019;-86
2023/12/25 03:00:42;;;;;;;;;;;7.90;99.90;;;;;;5024914;28;19971;-85
2023/12/25 03:03:07;;;;;;;;;;;7.80;99.90;;;;;;5031140;28;19909;-86
2023/12/25 03:05:32;;;;;;;;;;;7.70;99.90;;;;;;5029900;28;19917;-85
2023/12/25 03:07:58;;;;;;;;;;;7.80;99.90;;;;;;5031694;28;19955;-86
2023/12/25 03:10:23;;;;;;;;;;;7.80;99.90;;;;;;5037966;28;19912;-86
2023/12/25 03:12:49;;;;;;;;;;;7.70;99.90;;;;;;5009582;28;20329;-86
2023/12/25 03:15:14;;;;;;;;;;;7.80;99.90;;;;;;5019363;28;19974;-86
2023/12/25 03:17:39;;;;;;;;;;;7.90;99.90;;;;;;5036285;28;20328;-85
2023/12/25 03:20:05;;;;;;;;;;;7.90;99.90;;;;;;5038383;28;19916;-87
2023/12/25 03:22:31;;;;;;;;;;;7.90;99.90;;;;;;5032323;28;19920;-86
2023/12/25 03:24:58;;;;;;;;;;;7.90;99.90;;;;;;5013131;28;19924;-86
2023/12/25 03:27:24;;;;;;;;;;;7.90;99.90;;;;;;5012764;28;20643;-86
2023/12/25 03:29:49;;;;;;;;;;;7.90;99.90;;;;;;5028449;28;19909;-86
2023/12/25 03:32:16;;;;;;;;;;;7.90;99.90;;;;;;5028870;28;19970;-86
2023/12/25 03:34:48;;;;;;;;;;;7.90;99.90;;;;;;5027519;28;19920;-86
2023/12/25 03:37:13;;;;;;;;;;;7.90;99.90;;;;;;5029218;28;19977;-86
2023/12/25 03:39:39;;;;;;;;;;;7.90;99.90;;;;;;5011779;28;19913;-86
2023/12/25 03:42:04;;;;;;;;;;;7.90;99.90;;;;;;5029550;28;20007;-85
2023/12/25 03:44:30;;;;;;;;;;;7.80;99.90;;;;;;4999855;28;19956;-86
2023/12/25 03:46:55;;;;;;;;;;;7.80;99.90;;;;;;5025350;28;19913;-86
2023/12/25 03:49:21;;;;;;;;;;;7.80;99.90;;;;;;5039643;28;19913;-87
2023/12/25 03:51:46;;;;;;;;;;;7.90;99.90;;;;;;5029093;28;19917;-86
2023/12/25 03:54:12;;;;;;;;;;;7.90;99.90;;;;;;5010226;28;19993;-86
2023/12/25 03:56:37;;;;;;;;;;;7.90;99.90;;;;;;5030702;28;19905;-86
2023/12/25 03:59:03;;;;;;;;;;;7.90;99.90;;;;;;5050053;28;20430;-86
2023/12/25 04:01:28;;;;;;;;;;;7.80;99.90;;;;;;5016457;28;20516;-85
2023/12/25 04:03:53;;;;;;;;;;;7.80;99.90;;;;;;5040202;28;20466;-86
2023/12/25 04:06:25;;;;;;;;;;;7.80;99.90;;;;;;5014812;28;19943;-85
2023/12/25 04:08:51;;;;;;;;;;;7.80;99.90;;;;;;5025816;28;19916;-86
2023/12/25 04:11:17;;;;;;;;;;;7.80;99.90;;;;;;5037586;28;20392;-86
2023/12/25 04:13:43;;;;;;;;;;;7.80;99.90;;;;;;5036072;28;19909;-86
2023/12/25 04:16:17;;;;;;;;;;;7.80;99.90;;;;;;5016959;28;19914;-87
2023/12/25 04:18:42;;;;;;;;;;;7.80;99.90;;;;;;5015001;28;19912;-87
2023/12/25 04:21:08;;;;;;;;;;;7.80;99.90;;;;;;5034060;28;20666;-86
2023/12/25 04:23:33;;;;;;;;;;;7.80;99.90;;;;;;5030257;28;20385;-86
2023/12/25 04:25:59;;;;;;;;;;;7.80;99.90;;;;;;5013266;28;20390;-86
2023/12/25 04:28:24;;;;;;;;;;;7.80;99.90;;;;;;5031247;28;20448;-85
2023/12/25 04:30:49;;;;;;;;;;;7.80;99.90;;;;;;5049126;28;20496;-86
2023/12/25 04:33:15;;;;;;;;;;;7.80;99.90;;;;;;5014861;28;20419;-86
2023/12/25 04:35:40;;;;;;;;;;;7.80;99.90;;;;;;5034685;28;19913;-86
2023/12/25 04:38:06;;;;;;;;;;;7.70;99.90;;;;;;5038826;28;20373;-86
2023/12/25 04:40:31;;;;;;;;;;;7.70;99.90;;;;;;5035361;28;19963;-85
2023/12/25 04:42:57;;;;;;;;;;;7.70;99.90;;;;;;5008050;28;19909;-87
2023/12/25 04:45:22;;;;;;;;;;;7.70;99.90;;;;;;5035615;28;20003;-86
2023/12/25 04:47:47;;;;;;;;;;;7.70;99.90;;;;;;5021762;28;20404;-86
2023/12/25 04:50:14;;;;;;;;;;;7.70;99.90;;;;;;5042830;28;20535;-86
2023/12/25 04:52:39;;;;;;;;;;;7.70;99.90;;;;;;5032403;28;20360;-86
2023/12/25 04:55:05;;;;;;;;;;;7.70;99.90;;;;;;5015001;28;19916;-86
2023/12/25 04:57:30;;;;;;;;;;;7.80;99.90;;;;;;5032195;28;20430;-86
2023/12/25 04:59:56;;;;;;;;;;;7.80;99.90;;;;;;5015639;28;19909;-85
2023/12/25 05:02:21;;;;;;;;;;;7.90;99.90;;;;;;5042328;28;19913;-86
2023/12/25 05:04:46;;;;;;;;;;;7.90;99.90;;;;;;5039732;28;19967;-86
2023/12/25 05:07:12;;;;;;;;;;;7.80;99.90;;;;;;5041525;28;19912;-86
2023/12/25 05:09:38;;;;;;;;;;;7.80;99.90;;;;;;5049060;28;19915;-86
2023/12/25 05:12:04;;;;;;;;;;;7.80;99.90;;;;;;5034070;28;19912;-87
2023/12/25 05:14:29;;;;;;;;;;;7.80;99.90;;;;;;5025710;28;19919;-86
2023/12/25 05:16:55;;;;;;;;;;;7.70;99.90;;;;;;5047840;28;19913;-86
2023/12/25 05:19:20;;;;;;;;;;;7.70;99.90;;;;;;5033779;28;19935;-87
2023/12/25 05:21:46;;;;;;;;;;;7.70;99.90;;;;;;5034703;28;19921;-86
2023/12/25 05:24:11;;;;;;;;;;;7.70;99.90;;;;;;5035302;28;19913;-86
2023/12/25 05:26:36;;;;;;;;;;;7.60;99.90;;;;;;5033254;28;19936;-86
2023/12/25 05:29:02;;;;;;;;;;;7.50;99.90;;;;;;5038836;28;19909;-86
2023/12/25 05:31:27;;;;;;;;;;;7.50;99.90;;;;;;5040956;28;19909;-86
2023/12/25 05:33:53;;;;;;;;;;;7.50;99.90;;;;;;5028729;28;19908;-87
2023/12/25 05:36:18;;;;;;;;;;;7.50;99.90;;;;;;5026908;28;20345;-86
2023/12/25 05:38:44;;;;;;;;;;;7.50;99.90;;;;;;5044966;28;20564;-86
2023/12/25 05:41:09;;;;;;;;;;;7.50;99.90;;;;;;5041856;28;19913;-86
2023/12/25 05:43:35;;;;;;;;;;;7.50;99.90;;;;;;5043545;28;19980;-85
2023/12/25 05:46:00;;;;;;;;;;;7.50;99.90;;;;;;5045012;28;19966;-86
2023/12/25 05:48:25;;;;;;;;;;;7.50;99.90;;;;;;5038528;28;19912;-86
2023/12/25 05:50:51;;;;;;;;;;;7.40;99.90;;;;;;5035421;28;19919;-86
2023/12/25 05:53:16;;;;;;;;;;;7.40;99.90;;;;;;5038522;28;19948;-85
2023/12/25 05:55:47;;;;;;;;;;;7.40;99.90;;;;;;5047044;28;19913;-85
2023/12/25 05:58:13;;;;;;;;;;;7.30;99.90;;;;;;5032756;28;20513;-85
2023/12/25 06:00:38;;;;;;;;;;;7.40;99.90;;;;;;5035315;28;19912;-85
2023/12/25 06:03:03;;;;;;;;;;;7.30;99.90;;;;;;5028222;28;19913;-86
2023/12/25 06:05:29;;;;;;;;;;;7.20;99.90;;;;;;5030206;28;19924;-86
2023/12/25 06:07:54;;;;;;;;;;;7.20;99.90;;;;;;5015553;28;19970;-86
2023/12/25 06:10:20;;;;;;;;;;;7.30;99.90;;;;;;5032824;28;19913;-86
2023/12/25 06:12:45;;;;;;;;;;;7.30;99.90;;;;;;5038438;28;19947;-86
2023/12/25 06:15:11;;;;;;;;;;;7.20;99.90;;;;;;5028495;28;20055;-85
2023/12/25 06:17:36;;;;;;;;;;;7.20;99.90;;;;;;5010220;28;19999;-86
2023/12/25 06:20:04;;;;;;;;;;;7.20;99.90;;;;;;4997671;28;19910;-86
2023/12/25 06:22:29;;;;;;;;;;;7.20;99.90;;;;;;5027963;28;19920;-86
2023/12/25 06:24:55;;;;;;;;;;;7.20;99.90;;;;;;5034232;28;19924;-85
2023/12/25 06:27:21;;;;;;;;;;;7.20;99.90;;;;;;5031256;28;19935;-85
2023/12/25 06:29:46;;;;;;;;;;;7.20;99.90;;;;;;5033929;28;20377;-86
2023/12/25 06:32:13;;;;;;;;;;;7.10;99.90;;;;;;5041284;28;20463;-85
2023/12/25 06:34:38;;;;;;;;;;;7.10;99.90;;;;;;5010574;28;19909;-86
2023/12/25 06:37:03;;;;;;;;;;;7.20;99.90;;;;;;5024030;28;20005;-84
2023/12/25 06:39:29;;;;;;;;;;;7.20;99.90;;;;;;5029881;28;19917;-86
2023/12/25 06:41:54;;;;;;;;;;;7.20;99.90;;;;;;5030044;28;19905;-85
2023/12/25 06:44:20;;;;;;;;;;;7.20;99.90;;;;;;5031009;28;19917;-86
2023/12/25 06:46:45;;;;;;;;;;;7.20;99.90;;;;;;5025934;28;19916;-86
2023/12/25 06:49:11;;;;;;;;;;;7.10;99.90;;;;;;5024684;28;19919;-86
2023/12/25 06:51:36;;;;;;;;;;;6.80;99.90;;;;;;5029934;28;19916;-86
2023/12/25 06:54:02;;;;;;;;;;;6.50;99.90;;;;;;5011971;28;19912;-86
2023/12/25 06:56:27;;;;;;;;;;;6.30;99.90;;;;;;5024146;28;19912;-85
2023/12/25 06:58:53;;;;;;;;;;;6.20;99.90;;;;;;5034596;28;19975;-85
2023/12/25 07:01:22;;;;;;;;;;;6.10;99.90;;;;;;5049174;28;19992;-85
2023/12/25 07:03:47;;;;;;;;;;;6.10;99.90;;;;;;5029943;28;19912;-86
2023/12/25 07:06:13;;;;;;;;;;;6.10;99.90;;;;;;5028285;28;19917;-85
2023/12/25 07:08:38;;;;;;;;;;;6.10;99.90;;;;;;5041227;28;19925;-85
2023/12/25 07:11:04;;;;;;;;;;;6.10;99.90;;;;;;5011847;28;19909;-84
2023/12/25 07:13:33;;;;;;;;;;;6.10;99.90;;;;;;5027654;28;19920;-85
2023/12/25 07:16:00;;;;;;;;;;;6.00;99.90;;;;;;5015783;28;19939;-84
2023/12/25 07:18:26;;;;;;;;;;;6.10;99.90;;;;;;5035012;28;19950;-84
2023/12/25 07:20:51;;;;;;;;;;;6.10;99.90;;;;;;5030848;28;19921;-85
2023/12/25 07:23:18;;;;;;;;;;;6.00;99.90;;;;;;5043405;28;19950;-84
2023/12/25 07:25:44;;;;;;;;;;;6.00;99.90;;;;;;5014026;28;19978;-85
2023/12/25 07:28:10;;;;;;;;;;;6.00;99.90;;;;;;5023298;28;20019;-85
2023/12/25 07:30:35;;;;;;;;;;;6.10;99.90;;;;;;5014943;28;19924;-86
2023/12/25 07:33:01;;;;;;;;;;;6.10;99.90;;;;;;5036228;28;20404;-85
2023/12/25 07:35:29;;;;;;;;;;;6.20;99.90;;;;;;5030398;28;20429;-85
2023/12/25 07:37:59;;;;;;;;;;;6.20;99.90;;;;;;5026587;28;19909;-87
2023/12/25 07:40:24;;;;;;;;;;;6.10;99.90;;;;;;5013410;28;19909;-88
2023/12/25 07:42:50;;;;;;;;;;;6.00;99.90;;;;;;5030094;28;19963;-88
2023/12/25 07:45:15;;;;;;;;;;;6.00;99.90;;;;;;5016771;28;19920;-86
2023/12/25 07:47:42;;;;;;;;;;;5.90;99.90;;;;;;5021075;28;19913;-86
2023/12/25 07:50:08;;;;;;;;;;;5.80;99.90;;;;;;5029430;28;19917;-86
2023/12/25 07:52:33;;;;;;;;;;;5.80;99.90;;;;;;5009115;28;19915;-87
2023/12/25 07:54:59;;;;;;;;;;;5.70;99.90;;;;;;5021718;28;19917;-86
2023/12/25 07:57:24;;;;;;;;;;;5.70;99.90;;;;;;5028716;28;20008;-87
2023/12/25 07:59:50;;;;;;;;;;;5.80;99.90;;;;;;5011384;28;19964;-84
2023/12/25 08:02:15;;;;;;;;;;;5.70;99.90;;;;;;5020598;28;19917;-88
2023/12/25 08:04:41;;;;;;;;;;;5.80;99.90;;;;;;5020688;28;19917;-87
2023/12/25 08:07:06;;;;;;;;;;;5.90;99.90;;;;;;5015279;28;20406;-87
2023/12/25 08:09:32;;;;;;;;;;;5.90;99.90;;;;;;5031769;28;20380;-87
2023/12/25 08:11:58;;;;;;;;;;;5.90;99.90;;;;;;5027280;28;19909;-88
2023/12/25 08:14:24;;;;;;;;;;;5.90;99.90;;;;;;5030386;28;19974;-87
2023/12/25 08:16:50;;;;;;;;;;;5.90;99.90;;;;;;5027459;28;19916;-87
2023/12/25 08:19:15;;;;;;;;;;;6.00;99.90;;;;;;5022828;28;19908;-87
2023/12/25 08:21:41;;;;;;;;;;;5.90;99.90;;;;;;5031676;28;19921;-88
2023/12/25 08:24:06;;;;;;;;;;;5.90;99.90;;;;;;5009672;28;20427;-88
2023/12/25 08:26:33;;;;;;;;;;;5.90;99.90;;;;;;5038667;28;19928;-85
2023/12/25 08:28:58;;;;;;;;;;;6.10;99.90;;;;;;5033960;28;19956;-86
2023/12/25 08:31:24;;;;;;;;;;;6.00;99.90;;;;;;5040054;28;19963;-85
2023/12/25 08:33:49;;;;;;;;;;;6.10;99.90;;;;;;5042758;28;20046;-84
2023/12/25 08:36:14;;;;;;;;;;;6.10;99.90;;;;;;5029703;28;19940;-85
2023/12/25 08:38:40;;;;;;;;;;;6.10;99.90;;;;;;5013904;28;20023;-86
2023/12/25 08:41:05;;;;;;;;;;;6.10;99.90;;;;;;5024542;28;19940;-84
2023/12/25 08:43:31;;;;;;;;;;;6.10;99.90;;;;;;5018760;28;19947;-86
2023/12/25 08:45:57;;;;;;;;;;;6.10;99.90;;;;;;5026107;28;19925;-87
2023/12/25 08:48:23;;;;;;;;;;;6.10;99.90;;;;;;5004117;28;19909;-86
2023/12/25 08:50:49;;;;;;;;;;;6.10;99.90;;;;;;5012827;28;19909;-86
2023/12/25 08:53:14;;;;;;;;;;;6.30;99.90;;;;;;5027440;28;19913;-87
2023/12/25 08:55:40;;;;;;;;;;;6.40;99.90;;;;;;5003771;28;19913;-87
2023/12/25 08:58:05;;;;;;;;;;;6.40;99.90;;;;;;5008037;28;20684;-87
2023/12/25 09:00:31;;;;;;;;;;;6.50;99.90;;;;;;5036001;28;19913;-87
2023/12/25 09:02:56;;;;;;;;;;;6.60;99.90;;;;;;5042499;28;19994;-87
2023/12/25 09:05:22;;;;;;;;;;;6.50;99.90;;;;;;5038540;28;20025;-87
2023/12/25 09:07:47;;;;;;;;;;;6.50;99.90;;;;;;5038412;28;20003;-86
2023/12/25 09:10:13;;;;;;;;;;;6.50;99.90;;;;;;5046799;28;19920;-86
2023/12/25 09:12:38;;;;;;;;;;;6.60;99.90;;;;;;5032434;28;20038;-86
2023/12/25 09:15:07;;;;;;;;;;;6.70;99.90;;;;;;5033038;28;19916;-86
2023/12/25 09:17:34;;;;;;;;;;;6.70;99.90;;;;;;5049814;28;19912;-85
2023/12/25 09:19:59;;;;;;;;;;;6.70;99.90;;;;;;5035957;28;19921;-86
2023/12/25 09:22:27;;;;;;;;;;;6.80;99.90;;;;;;5033224;28;20309;-86
2023/12/25 09:24:52;;;;;;;;;;;6.60;99.90;;;;;;5034122;28;19964;-85
2023/12/25 09:27:18;;;;;;;;;;;6.60;99.90;;;;;;5034898;28;20362;-86
2023/12/25 09:29:43;;;;;;;;;;;6.60;99.90;;;;;;5033560;28;20214;-86
2023/12/25 09:32:09;;;;;;;;;;;6.60;99.90;;;;;;5015152;28;19913;-86
2023/12/25 09:34:34;;;;;;;;;;;6.60;99.90;;;;;;5023366;28;19916;-86
2023/12/25 09:37:00;;;;;;;;;;;6.70;99.90;;;;;;5016733;28;19913;-86
2023/12/25 09:39:25;;;;;;;;;;;7.00;99.90;;;;;;5032409;28;19944;-84
2023/12/25 09:41:54;;;;;;;;;;;7.00;99.90;;;;;;5034534;28;19916;-85
2023/12/25 09:44:19;;;;;;;;;;;7.20;99.90;;;;;;5009894;28;19988;-85
2023/12/25 09:46:46;;;;;;;;;;;7.40;99.90;;;;;;5013469;28;20452;-86
2023/12/25 09:49:13;;;;;;;;;;;7.80;99.90;;;;;;5042597;28;19991;-86
2023/12/25 09:51:38;;;;;;;;;;;7.80;99.90;;;;;;5011048;28;20254;-85
2023/12/25 09:54:04;;;;;;;;;;;7.90;99.90;;;;;;5014481;28;19960;-85
2023/12/25 09:56:33;;;;;;;;;;;7.90;99.90;;;;;;5028668;28;19971;-86
2023/12/25 09:58:59;;;;;;;;;;;8.00;99.90;;;;;;5009612;28;20448;-86
2023/12/25 10:01:25;;;;;;;;;;;8.00;99.90;;;;;;5032038;28;20004;-87
2023/12/25 10:03:52;;;;;;;;;;;7.90;99.90;;;;;;5014246;28;20381;-86
2023/12/25 10:06:19;;;;;;;;;;;7.90;99.90;;;;;;5009131;28;19917;-85
2023/12/25 10:08:44;;;;;;;;;;;7.80;99.90;;;;;;5025588;28;19913;-85
2023/12/25 10:11:13;;;;;;;;;;;7.80;99.90;;;;;;5022086;28;19935;-86
2023/12/25 10:13:41;;;;;;;;;;;7.80;99.90;;;;;;5029094;28;20050;-86
2023/12/25 10:16:07;;;;;;;;;;;7.50;99.90;;;;;;5022154;28;20365;-86
2023/12/25 10:18:33;;;;;;;;;;;7.40;99.90;;;;;;5031304;28;19916;-85
2023/12/25 10:21:02;;;;;;;;;;;7.30;99.90;;;;;;5013005;28;20382;-85
2023/12/25 10:23:31;;;;;;;;;;;7.50;99.90;;;;;;4992817;28;19909;-86
2023/12/25 10:25:57;;;;;;;;;;;7.60;99.90;;;;;;5009927;28;20016;-84
2023/12/25 10:28:27;;;;;;;;;;;7.90;99.90;;;;;;4995097;28;19916;-85
2023/12/25 10:31:02;;;;;;;;;;;8.10;99.90;;;;;;5014347;28;19909;-85
2023/12/25 10:33:28;;;;;;;;;;;8.10;99.90;;;;;;4999595;28;20306;-85
2023/12/25 10:36:07;;;;;;;;;;;8.20;99.90;;;;;;4994216;28;20263;-85
2023/12/25 10:38:36;;;;;;;;;;;8.40;99.90;;;;;;5011797;28;19913;-86
2023/12/25 10:41:18;;;;;;;;;;;8.60;99.90;;;;;;5008792;28;19917;-86
2023/12/25 10:43:52;;;;;;;;;;;8.80;99.90;;;;;;5012210;28;20385;-85
2023/12/25 10:46:19;;;;;;;;;;;8.90;99.90;;;;;;5016626;28;20031;-85
2023/12/25 10:48:49;;;;;;;;;;;8.90;99.90;;;;;;5029628;28;19909;-85
2023/12/25 10:51:17;;;;;;;;;;;9.30;99.90;;;;;;5011251;28;20444;-86
2023/12/25 10:53:43;;;;;;;;;;;8.90;99.90;;;;;;5022748;28;19917;-85
2023/12/25 10:56:09;;;;;;;;;;;9.00;99.90;;;;;;5013713;28;19928;-86
2023/12/25 10:58:34;;;;;;;;;;;9.00;99.90;;;;;;5029346;28;19920;-86
2023/12/25 11:01:01;;;;;;;;;;;9.00;99.90;;;;;;5018103;28;19920;-86
2023/12/25 11:03:27;;;;;;;;;;;9.00;99.90;;;;;;5007912;28;20003;-86
2023/12/25 11:05:52;;;;;;;;;;;9.20;99.90;;;;;;5019738;28;19917;-84
2023/12/25 11:08:18;;;;;;;;;;;9.40;99.90;;;;;;5024315;28;19913;-85
2023/12/25 11:10:47;;;;;;;;;;;9.30;99.90;;;;;;5016710;28;19921;-85
2023/12/25 11:13:19;;;;;;;;;;;9.20;99.90;;;;;;4997530;28;19909;-85
2023/12/25 11:15:45;;;;;;;;;;;9.00;99.90;;;;;;5025633;28;19959;-84
2023/12/25 11:18:11;;;;;;;;;;;9.40;99.90;;;;;;4999513;28;20412;-85
2023/12/25 11:20:40;;;;;;;;;;;9.20;99.90;;;;;;5017943;28;20295;-85
2023/12/25 11:23:06;;;;;;;;;;;9.20;99.90;;;;;;5031805;28;19909;-86
2023/12/25 11:25:33;;;;;;;;;;;9.30;99.90;;;;;;5023316;28;20292;-86
2023/12/25 11:28:02;;;;;;;;;;;9.00;99.90;;;;;;5019360;28;19913;-86
2023/12/25 11:30:31;;;;;;;;;;;9.00;99.90;;;;;;5023596;28;20384;-86
2023/12/25 11:32:56;;;;;;;;;;;8.70;99.90;;;;;;5016057;28;19913;-86
2023/12/25 11:35:27;;;;;;;;;;;8.70;99.90;;;;;;5043412;28;19935;-86
2023/12/25 11:38:25;;;;;;;;;;;8.60;99.90;;;;;;5032899;28;20531;-85
2023/12/25 11:40:51;;;;;;;;;;;8.80;99.90;;;;;;5030168;28;20616;-85
2023/12/25 11:43:17;;;;;;;;;;;8.80;99.90;;;;;;5028092;28;19909;-84
2023/12/25 11:45:43;;;;;;;;;;;9.20;99.90;;;;;;5023728;28;20281;-85
2023/12/25 11:48:11;;;;;;;;;;;9.30;99.90;;;;;;5011037;28;19913;-85
2023/12/25 11:50:37;;;;;;;;;;;9.70;99.90;;;;;;5037329;28;19912;-85
2023/12/25 11:53:02;;;;;;;;;;;9.40;99.90;;;;;;5033009;28;20362;-86
2023/12/25 11:55:28;;;;;;;;;;;9.60;99.90;;;;;;5029638;28;20377;-82
2023/12/25 11:57:53;;;;;;;;;;;9.60;99.90;;;;;;5030540;28;20362;-84
2023/12/25 12:00:22;;;;;;;;;;;9.40;99.90;;;;;;5030503;28;20393;-82
2023/12/25 12:02:47;;;;;;;;;;;9.70;99.90;;;;;;5029824;28;20357;-83
2023/12/25 12:05:13;;;;;;;;;;;9.60;99.90;;;;;;5026944;28;19924;-81
2023/12/25 12:07:39;;;;;;;;;;;9.60;99.90;;;;;;5020400;28;19986;-85
2023/12/25 12:10:05;;;;;;;;;;;9.60;99.90;;;;;;5041191;28;19917;-85
2023/12/25 12:12:30;;;;;;;;;;;8.90;99.90;;;;;;5039175;28;19974;-85
2023/12/25 12:14:56;;;;;;;;;;;8.80;99.90;;;;;;5035926;28;19924;-84
2023/12/25 12:17:21;;;;;;;;;;;8.90;99.90;;;;;;5030568;28;19913;-84
2023/12/25 12:19:47;;;;;;;;;;;8.90;99.90;;;;;;5035094;28;20427;-86
2023/12/25 12:22:13;;;;;;;;;;;9.20;99.90;;;;;;5025060;28;20403;-86
2023/12/25 12:24:38;;;;;;;;;;;9.40;99.90;;;;;;5022753;28;19912;-85
2023/12/25 12:27:04;;;;;;;;;;;9.70;99.90;;;;;;5026303;28;19917;-85
2023/12/25 12:29:30;;;;;;;;;;;9.40;99.90;;;;;;5042008;28;19909;-86
2023/12/25 12:31:56;;;;;;;;;;;9.70;99.90;;;;;;5044569;28;19913;-85
2023/12/25 12:34:22;;;;;;;;;;;10.00;99.90;;;;;;5031140;28;19919;-85
2023/12/25 12:36:57;;;;;;;;;;;10.00;99.90;;;;;;5040377;28;20055;-85
2023/12/25 12:39:23;;;;;;;;;;;9.90;99.90;;;;;;5041753;28;20285;-84
2023/12/25 12:41:48;;;;;;;;;;;9.70;99.90;;;;;;5037070;28;19920;-83
2023/12/25 12:44:14;;;;;;;;;;;10.00;99.90;;;;;;5042768;28;19960;-87
2023/12/25 12:46:40;;;;;;;;;;;10.20;99.90;;;;;;5034722;28;20015;-84
2023/12/25 12:49:05;;;;;;;;;;;9.80;99.90;;;;;;5047375;28;20376;-84
2023/12/25 12:51:30;;;;;;;;;;;9.90;99.90;;;;;;5019651;28;19919;-86
2023/12/25 12:53:56;;;;;;;;;;;9.60;99.90;;;;;;5045656;28;19921;-84
2023/12/25 12:56:21;;;;;;;;;;;9.10;99.90;;;;;;5048733;28;19943;-86
2023/12/25 12:58:47;;;;;;;;;;;8.40;99.90;;;;;;5034394;28;20455;-87
2023/12/25 13:01:14;;;;;;;;;;;8.60;99.90;;;;;;5034750;28;20012;-85
2023/12/25 13:03:41;;;;;;;;;;;9.30;99.90;;;;;;5033390;28;20416;-84
2023/12/25 13:06:07;;;;;;;;;;;9.50;99.90;;;;;;5038056;28;19917;-83
2023/12/25 13:08:32;;;;;;;;;;;9.90;99.90;;;;;;5034766;28;19916;-86
2023/12/25 13:10:58;;;;;;;;;;;9.90;99.90;;;;;;5037224;28;20424;-85
2023/12/25 13:13:23;;;;;;;;;;;9.80;99.90;;;;;;5045453;28;20700;-84
2023/12/25 13:15:48;;;;;;;;;;;9.10;99.90;;;;;;5040532;28;19935;-84
2023/12/25 13:18:14;;;;;;;;;;;8.90;99.90;;;;;;5018307;28;19967;-83
2023/12/25 13:20:39;;;;;;;;;;;8.80;99.90;;;;;;5031959;28;20003;-85
2023/12/25 13:23:05;;;;;;;;;;;8.50;99.90;;;;;;5030499;28;19951;-85
2023/12/25 13:25:30;;;;;;;;;;;8.80;99.90;;;;;;5031775;28;19971;-84
2023/12/25 13:27:56;;;;;;;;;;;8.70;99.90;;;;;;5014112;28;19963;-83
2023/12/25 13:30:21;;;;;;;;;;;8.60;99.90;;;;;;5031542;28;19920;-83
2023/12/25 13:32:46;;;;;;;;;;;8.70;99.90;;;;;;5013943;28;20356;-84
2023/12/25 13:35:12;;;;;;;;;;;8.50;99.90;;;;;;5032069;28;19986;-85
2023/12/25 13:37:37;;;;;;;;;;;8.30;99.90;;;;;;5031977;28;19916;-87
2023/12/25 13:40:06;;;;;;;;;;;8.20;99.90;;;;;;5029547;28;20357;-87
2023/12/25 13:42:31;;;;;;;;;;;8.00;99.90;;;;;;5030008;28;19920;-86
2023/12/25 13:44:57;;;;;;;;;;;8.00;99.90;;;;;;5031601;28;19971;-84
2023/12/25 13:47:23;;;;;;;;;;;8.00;99.90;;;;;;5019028;28;19913;-87
2023/12/25 13:49:48;;;;;;;;;;;7.90;99.90;;;;;;5037320;28;20372;-86
2023/12/25 13:52:14;;;;;;;;;;;7.80;99.90;;;;;;5034331;28;19967;-86
2023/12/25 13:54:39;;;;;;;;;;;7.80;99.90;;;;;;5035936;28;19913;-86
2023/12/25 13:57:05;;;;;;;;;;;7.60;99.90;;;;;;5030268;28;20419;-86
2023/12/25 13:59:30;;;;;;;;;;;7.40;99.90;;;;;;5037492;28;19913;-87
2023/12/25 14:01:56;;;;;;;;;;;7.30;99.90;;;;;;5036900;28;19956;-85
2023/12/25 14:04:21;;;;;;;;;;;7.30;99.90;;;;;;5030456;28;19946;-86
2023/12/25 14:06:47;;;;;;;;;;;7.40;99.90;;;;;;5031078;28;19921;-86
2023/12/25 14:09:12;;;;;;;;;;;7.60;99.90;;;;;;5011919;28;19995;-85
2023/12/25 14:11:38;;;;;;;;;;;7.40;99.90;;;;;;5011215;28;19966;-85
2023/12/25 14:14:03;;;;;;;;;;;7.40;99.90;;;;;;5031177;28;19909;-85
2023/12/25 14:16:29;;;;;;;;;;;7.30;99.90;;;;;;5030905;28;20449;-86
2023/12/25 14:18:54;;;;;;;;;;;7.20;99.90;;;;;;5030215;28;20424;-85
2023/12/25 14:21:19;;;;;;;;;;;7.20;99.90;;;;;;4991551;28;1089542;-86